Time;durP1;ratioP1;P1;durP2;ratioP2;P2;SDS_P1;SDS_P2;PMS_P1;PMS_P2;Temp;Humidity;BMP_temperature;BMP_pressure;BME280_temperature;BME280_humidity;BME280_pressure;Samples;Min_cycle;Max_cycle;Signal;HPM_P1;HPM_P2
2022/07/21 00:00:09;;;;;;;;;4.50;4.25;;;;;20.37;100.00;101641.44;4922417;28;44827;-86
2022/07/21 00:02:35;;;;;;;;;3.60;3.60;;;;;20.43;100.00;101637.31;4921968;28;45815;-85
2022/07/21 00:05:00;;;;;;;;;4.00;4.00;;;;;20.45;100.00;101629.91;4922197;28;44752;-85
2022/07/21 00:07:26;;;;;;;;;4.00;4.00;;;;;20.47;100.00;101628.81;4922629;28;44673;-86
2022/07/21 00:09:53;;;;;;;;;4.25;4.00;;;;;20.50;100.00;101624.97;4923001;28;45309;-86
2022/07/21 00:12:21;;;;;;;;;3.00;3.00;;;;;20.51;100.00;101621.28;4924289;28;45356;-87
2022/07/21 00:14:47;;;;;;;;;4.60;3.80;;;;;20.48;100.00;101616.16;4910321;29;45387;-85
2022/07/21 00:17:23;;;;;;;;;5.25;4.50;;;;;20.47;100.00;101609.06;4912210;28;44745;-91
2022/07/21 00:19:52;;;;;;;;;5.40;4.00;;;;;20.46;100.00;101613.59;4912260;28;44949;-89
2022/07/21 00:22:23;;;;;;;;;5.00;5.00;;;;;20.45;100.00;101611.03;4923236;29;45419;-90
2022/07/21 00:24:58;;;;;;;;;4.20;4.00;;;;;20.42;100.00;101608.63;4932188;28;44757;-91
2022/07/21 00:27:24;;;;;;;;;8.40;5.00;;;;;20.42;100.00;101614.88;4906954;29;45265;-86
2022/07/21 00:29:49;;;;;;;;;4.40;4.40;;;;;20.39;100.00;101611.59;4902743;28;45313;-85
2022/07/21 00:32:15;;;;;;;;;3.25;3.25;;;;;20.35;100.00;101616.44;4900552;29;45098;-86
2022/07/21 00:34:41;;;;;;;;;4.20;2.60;;;;;20.37;100.00;101614.47;4902084;28;45353;-86
2022/07/21 00:37:07;;;;;;;;;4.25;3.00;;;;;20.35;100.00;101624.53;4916589;28;44852;-85
2022/07/21 00:39:32;;;;;;;;;3.00;3.00;;;;;20.32;100.00;101619.44;4916341;28;44904;-85
2022/07/21 00:41:59;;;;;;;;;3.50;3.50;;;;;20.29;100.00;101623.25;4901916;29;45277;-86
2022/07/21 00:44:32;;;;;;;;;4.60;3.40;;;;;20.29;100.00;101615.16;4902034;29;45395;-92
2022/07/21 00:46:58;;;;;;;;;4.40;3.80;;;;;20.22;100.00;101619.47;4904204;29;44609;-91
2022/07/21 00:49:37;;;;;;;;;4.25;4.25;;;;;20.21;100.00;101617.75;4906186;29;44860;-90
2022/07/21 00:52:17;;;;;;;;;2.20;2.20;;;;;20.19;100.00;101617.03;4921922;29;46812;-90
2022/07/21 00:54:57;;;;;;;;;4.20;4.20;;;;;20.19;100.00;101617.03;4917757;29;44658;-91
2022/07/21 00:57:46;;;;;;;;;5.80;4.20;;;;;20.20;100.00;101620.59;4911363;28;44735;-91
2022/07/21 01:00:24;;;;;;;;;5.00;5.00;;;;;20.18;100.00;101615.34;4905962;28;44682;-91
2022/07/21 01:02:54;;;;;;;;;5.40;4.40;;;;;20.14;100.00;101613.06;4902222;29;45264;-91
2022/07/21 01:05:25;;;;;;;;;5.20;4.60;;;;;20.14;100.00;101624.72;4904670;29;44765;-92
2022/07/21 01:07:55;;;;;;;;;4.00;4.00;;;;;20.10;100.00;101620.59;4906819;29;45144;-91
2022/07/21 01:10:26;;;;;;;;;4.00;4.00;;;;;20.07;100.00;101620.91;4910733;28;44706;-91
2022/07/21 01:12:52;;;;;;;;;4.40;4.40;;;;;20.04;100.00;101607.69;4892305;29;45172;-92
2022/07/21 01:15:19;;;;;;;;;7.75;5.00;;;;;20.03;100.00;101616.78;4910744;29;45147;-91
2022/07/21 01:17:55;;;;;;;;;4.60;4.40;;;;;20.03;100.00;101616.78;4913988;29;44793;-91
2022/07/21 01:20:31;;;;;;;;;4.00;4.00;;;;;20.01;100.00;101616.03;4915590;29;44646;-91
2022/07/21 01:23:08;;;;;;;;;4.40;4.40;;;;;20.00;100.00;101619.75;4917349;29;45256;-91
2022/07/21 01:26:07;;;;;;;;;4.40;4.40;;;;;19.99;100.00;101620.75;4916424;29;44673;-91
2022/07/21 01:28:36;;;;;;;;;4.00;4.00;;;;;19.99;100.00;101615.34;4893321;29;44781;-90
2022/07/21 01:31:05;;;;;;;;;3.80;3.80;;;;;19.99;100.00;101623.44;4889265;29;44984;-90
2022/07/21 01:33:39;;;;;;;;;3.80;3.80;;;;;19.98;100.00;101619.03;4910115;29;45331;-91
2022/07/21 01:36:07;;;;;;;;;5.60;5.40;;;;;19.96;100.00;101608.38;4911843;29;44642;-91
2022/07/21 01:41:30;;;;;;;;;6.00;5.00;;;;;19.96;100.00;101599.44;4913414;29;44704;-91
2022/07/21 01:44:27;;;;;;;;;5.00;5.00;;;;;19.96;100.00;101597.59;4909924;29;45148;-91
2022/07/21 01:47:17;;;;;;;;;7.80;5.60;;;;;19.91;100.00;101597.16;4910474;29;44723;-91
2022/07/21 01:49:47;;;;;;;;;4.20;4.20;;;;;19.95;100.00;101604.00;4916238;29;44790;-91
2022/07/21 01:52:24;;;;;;;;;5.00;4.00;;;;;19.95;100.00;101597.75;4912804;29;44744;-91
2022/07/21 01:54:51;;;;;;;;;6.40;5.00;;;;;19.93;100.00;101603.28;4909896;29;45280;-91
2022/07/21 01:57:19;;;;;;;;;5.60;4.00;;;;;19.93;100.00;101608.69;4902320;29;44703;-91
2022/07/21 01:59:45;;;;;;;;;5.00;5.00;;;;;19.92;100.00;101604.28;4906580;29;44749;-90
2022/07/21 02:02:11;;;;;;;;;8.25;4.75;;;;;19.89;100.00;101607.25;4908023;29;44813;-90
2022/07/21 02:04:37;;;;;;;;;3.00;3.00;;;;;19.86;100.00;101612.06;4901507;29;45229;-91
2022/07/21 02:07:03;;;;;;;;;8.50;5.50;;;;;19.86;100.00;101614.78;4902883;29;44703;-90
2022/07/21 02:09:34;;;;;;;;;4.00;4.00;;;;;19.85;100.00;101624.72;4892285;28;44764;-91
2022/07/21 02:12:03;;;;;;;;;5.25;5.25;;;;;19.83;100.00;101629.41;4903147;29;44881;-91
2022/07/21 02:14:35;;;;;;;;;6.20;4.80;;;;;19.83;100.00;101636.66;4907448;29;46394;-91
2022/07/21 02:17:04;;;;;;;;;7.00;5.00;;;;;19.77;100.00;101630.81;4928656;28;44781;-91
2022/07/21 02:19:39;;;;;;;;;7.20;5.20;;;;;19.72;100.00;101624.97;4911944;28;44657;-91
2022/07/21 02:22:08;;;;;;;;;7.60;5.00;;;;;19.74;100.00;101632.94;4911083;28;44833;-90
2022/07/21 02:24:43;;;;;;;;;5.20;5.20;;;;;19.71;100.00;101625.97;4909776;28;45408;-91
2022/07/21 02:27:12;;;;;;;;;4.00;4.00;;;;;19.72;100.00;101621.44;4905868;29;44743;-89
2022/07/21 02:29:38;;;;;;;;;4.60;4.60;;;;;19.75;100.00;101632.78;4908853;29;44561;-90
2022/07/21 02:32:09;;;;;;;;;5.60;4.20;;;;;19.76;100.00;101633.66;4926957;28;45087;-90
2022/07/21 02:34:58;;;;;;;;;6.20;6.20;;;;;19.75;100.00;101622.00;4907380;28;45047;-91
2022/07/21 02:38:02;;;;;;;;;5.20;4.60;;;;;19.73;100.00;101623.16;4911441;28;45218;-91
2022/07/21 02:40:37;;;;;;;;;7.20;7.20;;;;;19.73;100.00;101617.78;4903677;28;44805;-91
2022/07/21 02:43:41;;;;;;;;;5.60;5.60;;;;;19.71;100.00;101623.28;4904265;28;44682;-91
2022/07/21 02:46:37;;;;;;;;;5.00;5.00;;;;;19.70;100.00;101628.81;4902353;29;45197;-91
2022/07/21 02:49:06;;;;;;;;;7.00;5.60;;;;;19.67;100.00;101629.09;4904461;29;44667;-91
2022/07/21 02:51:36;;;;;;;;;7.80;4.80;;;;;19.66;100.00;101630.94;4904648;28;44748;-91
2022/07/21 02:54:04;;;;;;;;;7.50;7.50;;;;;19.66;100.00;101633.63;4922500;28;45261;-91
2022/07/21 02:56:32;;;;;;;;;9.20;7.40;;;;;19.64;100.00;101624.84;4912185;28;45055;-91
2022/07/21 02:59:01;;;;;;;;;9.20;6.00;;;;;19.68;100.00;101636.22;4911247;29;44736;-91
2022/07/21 03:01:27;;;;;;;;;8.00;6.80;;;;;19.69;100.00;101646.00;4913881;29;45274;-91
2022/07/21 03:03:52;;;;;;;;;11.25;9.50;;;;;19.66;100.00;101644.41;4929217;28;44926;-91
2022/07/21 03:06:26;;;;;;;;;9.50;8.25;;;;;19.68;100.00;101642.44;4907430;29;45416;-91
2022/07/21 03:08:57;;;;;;;;;8.80;8.80;;;;;19.68;100.00;101647.84;4911599;29;44623;-90
2022/07/21 03:11:30;;;;;;;;;9.00;9.00;;;;;19.69;100.00;101646.00;4897819;29;44727;-91
2022/07/21 03:13:56;;;;;;;;;13.75;10.25;;;;;19.69;100.00;101646.00;4924950;29;44769;-90
2022/07/21 03:16:22;;;;;;;;;13.00;11.00;;;;;19.67;100.00;101645.25;4920976;29;45065;-90
2022/07/21 03:18:57;;;;;;;;;8.80;7.40;;;;;19.68;100.00;101649.69;4914049;29;45324;-91
2022/07/21 03:21:35;;;;;;;;;14.80;12.80;;;;;19.64;100.00;101648.25;4909126;29;44777;-91
2022/07/21 03:24:05;;;;;;;;;11.00;11.00;;;;;19.64;100.00;101643.72;4895302;29;44843;-89
2022/07/21 03:26:38;;;;;;;;;11.20;10.60;;;;;19.65;100.00;101644.56;4909481;29;45117;-91
2022/07/21 03:29:04;;;;;;;;;13.20;10.40;;;;;19.54;100.00;101645.50;4908622;29;44615;-91
2022/07/21 03:31:33;;;;;;;;;15.40;14.00;;;;;19.43;100.00;101643.75;4892814;29;44702;-91
2022/07/21 03:34:06;;;;;;;;;13.25;13.00;;;;;19.40;100.00;101657.53;4913444;29;44905;-91
2022/07/21 03:36:46;;;;;;;;;19.00;12.40;;;;;19.35;100.00;101658.94;4904620;28;45164;-90
2022/07/21 03:39:22;;;;;;;;;15.40;11.60;;;;;19.29;100.00;101667.53;4899277;29;44650;-91
2022/07/21 03:41:53;;;;;;;;;14.80;14.00;;;;;19.26;100.00;101666.00;4923249;28;44693;-89
2022/07/21 03:44:19;;;;;;;;;12.75;12.00;;;;;19.20;100.00;101671.94;4900325;29;44849;-85
2022/07/21 03:46:45;;;;;;;;;15.25;14.25;;;;;19.21;100.00;101666.41;4902600;29;45070;-85
2022/07/21 03:49:10;;;;;;;;;12.50;12.50;;;;;19.19;100.00;101671.06;4905254;29;45263;-85
2022/07/21 03:51:36;;;;;;;;;15.00;13.00;;;;;19.16;100.00;101667.81;4892168;29;44695;-85
2022/07/21 03:54:02;;;;;;;;;14.25;12.25;;;;;19.15;100.00;101679.56;4903596;29;45579;-85
2022/07/21 03:56:28;;;;;;;;;13.25;13.25;;;;;19.13;100.00;101676.16;4906750;29;45328;-85
2022/07/21 03:58:56;;;;;;;;;14.00;13.00;;;;;19.06;100.00;101670.44;4909508;29;44639;-90
2022/07/21 04:01:22;;;;;;;;;14.00;11.00;;;;;19.04;100.00;101675.09;4908229;29;44726;-91
2022/07/21 04:03:51;;;;;;;;;18.00;16.75;;;;;18.96;100.00;101681.19;4907544;29;45466;-90
2022/07/21 04:06:25;;;;;;;;;16.00;13.25;;;;;18.85;100.00;101683.94;4891297;29;45053;-90
2022/07/21 04:08:53;;;;;;;;;17.80;13.20;;;;;18.84;100.00;101690.31;4875234;29;44807;-90
2022/07/21 04:11:19;;;;;;;;;19.00;18.50;;;;;18.82;100.00;101686.91;4892780;29;44704;-91
2022/07/21 04:13:45;;;;;;;;;16.50;14.00;;;;;18.80;100.00;101679.94;4897217;29;44889;-91
2022/07/21 04:16:11;;;;;;;;;14.00;14.00;;;;;18.78;100.00;101685.47;4918170;29;45203;-90
2022/07/21 04:18:40;;;;;;;;;22.00;21.00;;;;;18.74;100.00;101692.94;4912829;29;44817;-90
2022/07/21 04:21:15;;;;;;;;;18.00;16.00;;;;;18.79;100.00;101699.78;4910751;29;44745;-90
2022/07/21 04:23:41;;;;;;;;;20.25;19.50;;;;;18.78;100.00;101700.78;4895379;29;44956;-90
2022/07/21 04:26:07;;;;;;;;;18.50;15.50;;;;;18.82;100.00;101695.00;4909567;29;45155;-85
2022/07/21 04:28:32;;;;;;;;;25.25;21.75;;;;;18.83;100.00;101702.06;4909815;29;44696;-85
2022/07/21 04:30:58;;;;;;;;;18.75;16.25;;;;;18.86;100.00;101703.66;4909748;29;44679;-84
2022/07/21 04:33:24;;;;;;;;;22.75;19.50;;;;;18.87;100.00;101708.91;4904222;29;45239;-84
2022/07/21 04:35:49;;;;;;;;;17.75;16.75;;;;;18.93;100.00;101707.50;4904489;29;45090;-84
2022/07/21 04:38:15;;;;;;;;;19.25;18.75;;;;;19.01;100.00;101713.09;4893432;29;45229;-85
2022/07/21 04:40:40;;;;;;;;;20.00;19.00;;;;;18.99;100.00;101705.13;4909402;29;45202;-85
2022/07/21 04:43:07;;;;;;;;;21.00;20.75;;;;;19.02;100.00;101705.88;4906783;29;45372;-85
2022/07/21 04:45:32;;;;;;;;;22.00;22.00;;;;;19.08;100.00;101697.25;4906182;29;45443;-85
2022/07/21 04:47:58;;;;;;;;;21.25;19.25;;;;;19.03;100.00;101705.72;4907099;29;45321;-85
2022/07/21 04:50:26;;;;;;;;;23.75;22.25;;;;;18.99;100.00;101712.38;4905043;29;45448;-84
2022/07/21 04:52:51;;;;;;;;;22.75;19.75;;;;;18.99;100.00;101709.66;4907152;29;44825;-91
2022/07/21 04:55:19;;;;;;;;;25.75;24.00;;;;;19.02;100.00;101703.19;4895412;29;46584;-84
2022/07/21 04:57:48;;;;;;;;;22.00;21.25;;;;;19.08;100.00;101711.56;4902661;29;45211;-85
2022/07/21 05:00:17;;;;;;;;;28.50;21.75;;;;;19.16;100.00;101710.91;4906491;29;44758;-85
2022/07/21 05:02:44;;;;;;;;;18.75;16.75;;;;;19.20;100.00;101710.50;4890372;29;45165;-85
2022/07/21 05:05:10;;;;;;;;;29.75;26.00;;;;;19.16;100.00;101711.75;4906599;29;45189;-85
2022/07/21 05:07:45;;;;;;;;;28.75;27.00;;;;;19.16;100.00;101714.44;4905134;29;44993;-88
2022/07/21 05:10:14;;;;;;;;;20.00;19.75;;;;;19.14;100.00;101704.78;4918617;29;44778;-89
2022/07/21 05:12:40;;;;;;;;;26.50;22.25;;;;;19.14;100.00;101711.00;4921974;29;44930;-90
2022/07/21 05:15:07;;;;;;;;;27.50;22.50;;;;;19.19;100.00;101713.31;4922200;29;45168;-90
2022/07/21 05:17:34;;;;;;;;;27.75;26.75;;;;;19.20;100.00;101707.81;4919136;29;44612;-91
2022/07/21 05:20:00;;;;;;;;;25.50;25.00;;;;;19.17;100.00;101713.44;4914535;29;44615;-85
2022/07/21 05:22:25;;;;;;;;;19.50;15.00;;;;;19.17;100.00;101713.44;4892089;29;44889;-85
2022/07/21 05:24:52;;;;;;;;;27.25;24.25;;;;;19.12;100.00;101713.00;4909347;28;46632;-85
2022/07/21 05:27:18;;;;;;;;;20.50;19.25;;;;;19.09;100.00;101712.41;4903825;29;45453;-85
2022/07/21 05:29:44;;;;;;;;;25.75;23.25;;;;;19.16;100.00;101714.44;4902286;29;44782;-85
2022/07/21 05:32:09;;;;;;;;;27.25;24.25;;;;;19.23;100.00;101715.59;4907242;29;45439;-85
2022/07/21 05:34:36;;;;;;;;;23.50;20.00;;;;;19.39;100.00;101715.13;4907536;29;45468;-85
2022/07/21 05:37:02;;;;;;;;;19.75;18.75;;;;;19.47;100.00;101712.56;4909982;29;44779;-85
2022/07/21 05:39:27;;;;;;;;;24.75;22.50;;;;;19.50;100.00;101714.16;4904858;29;45326;-85
2022/07/21 05:41:53;;;;;;;;;16.00;16.00;;;;;19.51;100.00;101713.16;4902385;29;45552;-85
2022/07/21 05:44:18;;;;;;;;;19.00;16.75;;;;;19.56;100.00;101710.91;4901315;29;45145;-85
2022/07/21 05:46:44;;;;;;;;;22.50;22.00;;;;;19.70;100.00;101713.25;4905564;29;44742;-85
2022/07/21 05:49:09;;;;;;;;;28.25;23.25;;;;;19.85;100.00;101723.66;4906252;29;44770;-85
2022/07/21 05:51:35;;;;;;;;;29.00;22.25;;;;;19.80;100.00;101726.75;4901951;29;45135;-85
2022/07/21 05:54:03;;;;;;;;;24.50;21.25;;;;;19.89;100.00;101727.78;4903525;29;45398;-90
2022/07/21 05:56:34;;;;;;;;;20.20;19.40;;;;;20.10;100.00;101725.81;4887178;29;44849;-91
2022/07/21 05:59:00;;;;;;;;;24.25;21.50;;;;;20.15;100.00;101728.94;4904214;29;44623;-90
2022/07/21 06:01:26;;;;;;;;;23.25;20.25;;;;;20.40;100.00;101715.88;4886023;29;44969;-90
2022/07/21 06:03:52;;;;;;;;;23.25;21.75;;;;;20.47;100.00;101730.56;4906774;29;44966;-91
2022/07/21 06:06:19;;;;;;;;;22.25;18.25;;;;;20.32;100.00;101738.19;4891472;29;45021;-91
2022/07/21 06:08:48;;;;;;;;;23.25;21.50;;;;;20.38;100.00;101737.63;4897552;29;44822;-92
2022/07/21 06:11:16;;;;;;;;;19.50;19.50;;;;;20.37;100.00;101741.31;4900140;29;44972;-90
2022/07/21 06:13:43;;;;;;;;;19.50;16.50;;;;;20.33;100.00;101729.09;4913619;29;45008;-90
2022/07/21 06:16:16;;;;;;;;;24.20;22.40;;;;;20.39;100.00;101739.31;4913386;29;44688;-90
2022/07/21 06:18:42;;;;;;;;;21.50;21.50;;;;;20.23;100.00;101730.94;4910901;29;44783;-89
2022/07/21 06:21:07;;;;;;;;;23.00;21.00;;;;;20.27;100.00;101738.63;4912595;29;45059;-91
2022/07/21 06:23:34;;;;;;;;;28.50;24.25;;;;;20.14;100.00;101742.56;4915258;29;45084;-91
2022/07/21 06:26:03;;;;;;;;;21.75;20.00;;;;;20.25;100.00;101747.84;4902216;29;44759;-89
2022/07/21 06:28:28;;;;;;;;;19.40;18.40;;;;;20.30;100.00;101742.84;4923187;29;44671;-90
2022/07/21 06:30:54;;;;;;;;;29.75;21.50;;;;;20.35;100.00;101742.44;4900818;29;44827;-90
2022/07/21 06:33:20;;;;;;;;;17.50;17.50;;;;;20.41;100.00;101745.44;4911247;29;45218;-90
2022/07/21 06:35:48;;;;;;;;;21.75;20.75;;;;;20.41;100.00;101742.75;4909801;29;44639;-90
2022/07/21 06:38:13;;;;;;;;;20.75;16.25;;;;;20.54;100.00;101737.91;4910698;29;44773;-90
2022/07/21 06:40:40;;;;;;;;;22.75;21.50;;;;;20.58;100.00;101741.19;4910316;28;44896;-90
2022/07/21 06:43:05;;;;;;;;;27.50;25.75;;;;;20.63;100.00;101735.38;4908075;29;47435;-85
2022/07/21 06:45:31;;;;;;;;;27.75;22.25;;;;;20.73;100.00;101741.59;4905684;29;45448;-84
2022/07/21 06:48:07;;;;;;;;;28.00;20.25;;;;;20.74;100.00;101735.19;4906774;29;45388;-85
2022/07/21 06:50:34;;;;;;;;;29.50;23.50;;;;;20.92;100.00;101736.16;4890025;29;44991;-85
2022/07/21 06:53:00;;;;;;;;;23.00;21.00;;;;;20.99;100.00;101736.44;4911273;29;45386;-85
2022/07/21 06:55:27;;;;;;;;;23.00;17.75;;;;;21.06;100.00;101740.25;4907626;29;44691;-85
2022/07/21 06:57:52;;;;;;;;;18.75;17.25;;;;;21.04;100.00;101739.56;4904302;29;44848;-85
2022/07/21 07:00:18;;;;;;;;;25.00;23.75;;;;;20.82;100.00;101743.44;4905030;29;44911;-85
2022/07/21 07:02:52;;;;;;;;;33.50;27.25;;;;;20.84;100.00;101745.97;4890447;29;46881;-85
2022/07/21 07:05:18;;;;;;;;;21.50;18.75;;;;;21.01;100.00;101743.41;4908072;29;45475;-85
2022/07/21 07:07:43;;;;;;;;;19.75;17.00;;;;;21.07;100.00;101749.22;4906326;29;45323;-85
2022/07/21 07:10:11;;;;;;;;;23.75;23.75;;;;;21.08;100.00;101750.91;4909718;29;44870;-85
2022/07/21 07:12:36;;;;;;;;;19.75;19.50;;;;;21.09;100.00;101749.94;4909921;29;45094;-84
2022/07/21 07:15:02;;;;;;;;;24.00;19.75;;;;;21.07;100.00;101750.06;4908910;29;44917;-85
2022/07/21 07:17:28;;;;;;;;;28.50;21.00;;;;;21.10;100.00;101754.34;4906302;29;45330;-85
2022/07/21 07:19:53;;;;;;;;;22.75;20.75;;;;;21.10;100.00;101757.03;4906690;29;44882;-85
2022/07/21 07:22:21;;;;;;;;;20.00;18.75;;;;;21.17;100.00;101752.72;4908842;29;45116;-90
2022/07/21 07:24:49;;;;;;;;;24.40;18.00;;;;;21.30;100.00;101748.75;4910485;29;44842;-89
2022/07/21 07:27:17;;;;;;;;;21.25;17.75;;;;;21.36;100.00;101746.44;4911777;29;44742;-89
2022/07/21 07:29:42;;;;;;;;;19.50;19.50;;;;;21.46;100.00;101752.66;4908680;29;44926;-90
2022/07/21 07:32:08;;;;;;;;;20.75;18.50;;;;;21.36;100.00;101747.28;4904929;28;45299;-89
2022/07/21 07:34:34;;;;;;;;;25.75;22.00;;;;;21.28;100.00;101761.53;4909665;29;44639;-90
2022/07/21 07:37:00;;;;;;;;;21.00;18.25;;;;;21.29;100.00;101760.53;4916526;29;44684;-90
2022/07/21 07:39:31;;;;;;;;;21.75;19.25;;;;;21.51;100.00;101753.91;4896785;29;44872;-89
2022/07/21 07:42:06;;;;;;;;;28.25;18.50;;;;;21.58;100.00;101750.63;4889736;29;45348;-89
2022/07/21 07:44:39;;;;;;;;;21.80;20.00;;;;;21.62;100.00;101752.03;4898655;29;44779;-89
2022/07/21 07:47:06;;;;;;;;;24.75;24.75;;;;;21.53;100.00;101751.94;4887831;29;44784;-89
2022/07/21 07:49:31;;;;;;;;;26.25;22.00;;;;;21.55;100.00;101760.72;4886264;29;45527;-85
2022/07/21 07:51:58;;;;;;;;;25.50;18.50;;;;;21.49;100.00;101764.03;4902632;29;45110;-84
2022/07/21 07:54:24;;;;;;;;;21.75;15.25;;;;;21.46;100.00;101758.06;4902567;29;44753;-85
2022/07/21 07:56:50;;;;;;;;;28.25;26.75;;;;;21.49;100.00;101763.19;4905916;29;44790;-84
2022/07/21 07:59:15;;;;;;;;;27.00;23.25;;;;;21.65;100.00;101754.44;4910671;29;45432;-84
2022/07/21 08:01:41;;;;;;;;;27.50;22.50;;;;;21.57;100.00;101757.91;4913227;29;46449;-84
2022/07/21 08:04:07;;;;;;;;;29.75;27.00;;;;;21.67;100.00;101764.09;4917017;29;45388;-84
2022/07/21 08:06:34;;;;;;;;;24.50;20.75;;;;;21.81;100.00;101762.75;4913379;29;44716;-84
2022/07/21 08:08:59;;;;;;;;;22.25;20.75;;;;;22.01;100.00;101764.34;4908534;28;44807;-84
2022/07/21 08:11:25;;;;;;;;;22.50;19.75;;;;;22.17;100.00;101766.41;4908022;28;45007;-85
2022/07/21 08:13:52;;;;;;;;;29.50;20.75;;;;;22.19;100.00;101769.81;4933074;28;44788;-84
2022/07/21 08:16:18;;;;;;;;;23.20;19.80;;;;;22.21;100.00;101765.09;4947079;28;45209;-85
2022/07/21 08:18:49;;;;;;;;;25.25;24.00;;;;;21.91;100.00;101773.53;4944453;28;44819;-85
2022/07/21 08:21:14;;;;;;;;;30.00;24.00;;;;;21.88;100.00;101777.38;4943961;28;45258;-85
2022/07/21 08:23:40;;;;;;;;;29.00;26.50;;;;;21.84;100.00;101777.81;4942605;28;44836;-85
2022/07/21 08:26:06;;;;;;;;;23.00;20.75;;;;;21.74;100.00;101772.47;4945101;28;45576;-85
2022/07/21 08:28:31;;;;;;;;;24.75;22.75;;;;;21.75;100.00;101780.41;4943946;28;44931;-85
2022/07/21 08:31:00;;;;;;;;;21.75;21.25;;;;;21.73;100.00;101787.00;4943016;28;44993;-84
2022/07/21 08:33:25;;;;;;;;;21.50;19.25;;;;;21.53;100.00;101787.09;4941488;28;44792;-84
2022/07/21 08:35:51;;;;;;;;;21.50;21.50;;;;;21.66;100.00;101794.00;4939766;28;45263;-84
2022/07/21 08:38:18;;;;;;;;;29.50;24.50;;;;;21.78;100.00;101784.69;4939685;28;44952;-85
2022/07/21 08:40:45;;;;;;;;;24.75;24.75;;;;;21.83;100.00;101789.66;4938241;28;45350;-84
2022/07/21 08:43:13;;;;;;;;;21.25;19.75;;;;;22.16;100.00;101780.94;4941613;28;44923;-89
2022/07/21 08:45:39;;;;;;;;;23.25;20.25;;;;;22.54;100.00;101777.09;4943270;28;45256;-89
2022/07/21 08:48:06;;;;;;;;;22.25;22.25;;;;;22.87;100.00;101771.06;4952976;28;44891;-89
2022/07/21 08:50:35;;;;;;;;;19.75;19.75;;;;;23.04;100.00;101771.06;4951970;28;47251;-89
2022/07/21 08:56:26;;;;;;;;;22.50;21.50;;;;;23.07;100.00;101768.06;4948856;28;44808;-85
2022/07/21 08:58:51;;;;;;;;;20.50;20.50;;;;;22.75;100.00;101787.59;4946380;28;44858;-85
2022/07/21 09:01:17;;;;;;;;;26.50;23.00;;;;;22.62;100.00;101775.44;4939460;28;45295;-84
2022/07/21 09:03:42;;;;;;;;;29.00;23.50;;;;;22.91;100.00;101772.50;4939353;28;45531;-84
2022/07/21 09:06:15;;;;;;;;;24.25;22.75;;;;;22.61;100.00;101790.00;4944356;28;45110;-85
2022/07/21 09:08:43;;;;;;;;;26.75;24.00;;;;;22.54;100.00;101779.81;4947663;28;45008;-85
2022/07/21 09:11:18;;;;;;;;;26.50;24.25;;;;;22.81;100.00;101778.81;4940203;28;45242;-84
2022/07/21 09:13:46;;;;;;;;;26.00;25.50;;;;;23.06;100.00;101776.31;4929042;28;45504;-85
2022/07/21 09:16:12;;;;;;;;;25.25;25.00;;;;;23.21;100.00;101780.19;4920928;28;45382;-85
2022/07/21 09:18:51;;;;;;;;;27.75;25.50;;;;;23.04;100.00;101775.66;4920460;28;44862;-84
2022/07/21 09:21:18;;;;;;;;;26.75;25.25;;;;;22.93;100.00;101779.47;4922550;28;45369;-84
2022/07/21 09:23:44;;;;;;;;;28.00;27.25;;;;;22.99;100.00;101773.41;4927511;28;45581;-84
2022/07/21 09:26:09;;;;;;;;;26.50;25.75;;;;;23.09;100.00;101776.03;4922414;28;45518;-85
2022/07/21 09:28:35;;;;;;;;;34.75;28.25;;;;;23.03;100.00;101779.38;4920820;28;44822;-85
2022/07/21 09:31:03;;;;;;;;;24.50;23.25;;;;;23.23;100.00;101769.16;4920668;28;45352;-85
2022/07/21 09:33:33;;;;;;;;;23.60;21.00;;;;;23.37;100.00;101776.72;4918823;28;44825;-85
2022/07/21 09:36:08;;;;;;;;;21.50;20.00;;;;;23.48;100.00;101775.56;4920596;28;44675;-84
2022/07/21 09:38:37;;;;;;;;;17.50;16.25;;;;;24.01;100.00;101778.03;4920877;28;44847;-86
2022/07/21 09:41:16;;;;;;;;;18.75;16.50;;;;;24.26;100.00;101780.81;4920987;28;45088;-86
2022/07/21 09:43:48;;;;;;;;;19.00;14.00;;;;;24.29;100.00;101778.59;4924373;28;45267;-84
2022/07/21 09:46:20;;;;;;;;;23.20;23.20;;;;;24.68;100.00;101779.88;4927091;28;44876;-86
2022/07/21 09:48:52;;;;;;;;;24.00;20.75;;;;;24.58;100.00;101780.03;4933610;28;44731;-85
2022/07/21 09:51:37;;;;;;;;;14.50;14.50;;;;;24.76;100.00;101769.84;4938401;28;45287;-90
2022/07/21 09:54:02;;;;;;;;;17.20;16.40;;;;;24.83;100.00;101775.44;4933212;28;44809;-85
2022/07/21 09:56:31;;;;;;;;;21.25;18.25;;;;;24.72;100.00;101762.22;4928572;28;44813;-85
2022/07/21 09:58:59;;;;;;;;;13.00;12.00;;;;;24.52;100.00;101765.25;4931216;28;44771;-91
2022/07/21 10:01:28;;;;;;;;;22.50;17.00;;;;;24.86;100.00;101766.97;4932850;28;45506;-90
2022/07/21 10:03:55;;;;;;;;;15.00;14.75;;;;;24.37;100.00;101756.09;4937228;28;44639;-91
2022/07/21 10:06:30;;;;;;;;;28.75;25.75;;;;;23.92;100.00;101764.59;4931622;28;44707;-86
2022/07/21 10:08:57;;;;;;;;;17.25;17.25;;;;;23.97;100.00;101763.06;4928602;28;45413;-85
2022/07/21 10:11:23;;;;;;;;;18.75;18.75;;;;;24.16;100.00;101763.81;4925602;28;45313;-85
2022/07/21 10:13:48;;;;;;;;;21.75;20.50;;;;;24.19;100.00;101758.06;4925490;28;44779;-86
2022/07/21 10:16:15;;;;;;;;;23.25;23.00;;;;;24.30;100.00;101757.72;4925807;28;44784;-86
2022/07/21 10:19:10;;;;;;;;;26.25;22.00;;;;;24.32;100.00;101758.41;4933115;28;45214;-85
2022/07/21 10:22:12;;;;;;;;;20.50;20.50;;;;;24.72;100.00;101756.78;4925835;28;45178;-85
2022/07/21 10:24:38;;;;;;;;;20.60;20.60;;;;;24.97;100.00;101747.56;4924971;28;44749;-86
2022/07/21 10:27:07;;;;;;;;;23.80;21.60;;;;;24.88;100.00;101756.75;4929951;28;44794;-91
2022/07/21 10:30:13;;;;;;;;;25.25;23.50;;;;;24.08;100.00;101775.53;4938844;28;44888;-91
2022/07/21 10:32:49;;;;;;;;;21.75;20.25;;;;;24.29;100.00;101770.47;4893518;29;45000;-90
2022/07/21 10:35:30;;;;;;;;;17.60;17.00;;;;;24.23;100.00;101773.84;4892933;29;44761;-89
2022/07/21 10:37:56;;;;;;;;;25.00;24.00;;;;;24.19;100.00;101777.91;4905518;29;44862;-84
2022/07/21 10:40:22;;;;;;;;;23.00;21.00;;;;;24.15;100.00;101770.25;4905618;29;44786;-85
2022/07/21 10:42:59;;;;;;;;;23.50;20.50;;;;;24.13;100.00;101777.72;4889746;28;45520;-86
2022/07/21 10:45:36;;;;;;;;;14.20;14.20;;;;;24.54;100.00;101765.94;4884757;29;44677;-85
2022/07/21 10:48:08;;;;;;;;;23.60;22.40;;;;;24.78;100.00;101769.66;4899812;29;44926;-85
2022/07/21 10:50:36;;;;;;;;;16.75;14.50;;;;;24.69;100.00;101770.69;4901250;29;44846;-86
2022/07/21 10:53:11;;;;;;;;;14.00;13.00;;;;;24.57;100.00;101760.16;4903114;29;45413;-85
2022/07/21 10:55:37;;;;;;;;;20.40;16.40;;;;;24.57;100.00;101762.88;4887921;29;44818;-85
2022/07/21 10:58:23;;;;;;;;;20.00;20.00;;;;;24.67;100.00;101764.59;4887000;29;44774;-85
2022/07/21 11:00:55;;;;;;;;;25.00;19.75;;;;;25.12;100.00;101762.19;4885888;29;44753;-85
2022/07/21 11:03:23;;;;;;;;;26.00;22.50;;;;;25.54;100.00;101750.16;4886645;29;45528;-85
2022/07/21 11:06:24;;;;;;;;;23.00;19.80;;;;;25.41;100.00;101768.91;4894090;28;44898;-85
2022/07/21 11:09:04;;;;;;;;;24.00;21.75;;;;;25.09;100.00;101757.09;4930924;28;44734;-86
2022/07/21 11:11:35;;;;;;;;;17.75;17.75;;;;;25.00;100.00;101765.41;4933830;28;44788;-85
2022/07/21 11:14:10;;;;;;;;;15.00;14.75;;;;;24.96;100.00;101756.75;4932787;28;45251;-85
2022/07/21 11:17:01;;;;;;;;;19.80;19.80;;;;;25.14;100.00;101762.00;4932899;28;44639;-91
2022/07/21 11:19:31;;;;;;;;;15.50;11.00;;;;;24.99;100.00;101755.53;4933085;28;44675;-90
2022/07/21 11:22:00;;;;;;;;;23.75;20.50;;;;;25.05;100.00;101761.16;4930589;28;44988;-89
2022/07/21 11:24:26;;;;;;;;;23.00;19.50;;;;;25.26;100.00;101751.63;4931570;28;45248;-90